EXS31ED EGGP-LEMH
Flight info
| Callsign | EXS31ED |
|---|---|
| Flight time | 2h 4m |
| Altitude | 39000 |
| Route | NANTI L8 STAFA P18 TELBA L151 KIDLI UN859 SOPIL DCT BALAN DCT EVPOK DCT NARAK DCT GAI DCT LOMRA DCT ROCAN DCT GEANT DCT GIR DCT SALON DCT SULID DCT DIPES N727 SARGO |
| Aircraft | B38M/M-SDE1FGHILORVWXY/HB1 |
Departure
| Time | 2026-04-26 13:15 |
|---|---|
| Airport | Liverpool John Lennon Airport (EGGP) |
Arrival
| Time | 2026-04-26 15:20 |
|---|---|
| Airport | Menorca Airport (LEMH) |
| Time | Latitude | Longitude | Altitude | Speed | Heading |
|---|---|---|---|---|---|
| 2026-04-26 13:03 | 53.33658 | -2.85586 | 88 ft | 0 kts | 356° |
| 2026-04-26 13:09 | 53.33656 | -2.85586 | 88 ft | 2 kts | 356° |
| 2026-04-26 13:09 | 53.33635 | -2.85581 | 88 ft | 3 kts | 339° |
| 2026-04-26 13:09 | 53.33618 | -2.85562 | 91 ft | 3 kts | 297° |
| 2026-04-26 13:09 | 53.33614 | -2.85528 | 88 ft | 2 kts | 266° |
| 2026-04-26 13:10 | 53.33614 | -2.85519 | 88 ft | 0 kts | 266° |
| 2026-04-26 13:11 | 53.33614 | -2.85526 | 88 ft | 2 kts | 266° |
| 2026-04-26 13:12 | 53.33613 | -2.85569 | 88 ft | 5 kts | 268° |
| 2026-04-26 13:12 | 53.33608 | -2.85642 | 90 ft | 7 kts | 268° |
| 2026-04-26 13:12 | 53.33604 | -2.85734 | 88 ft | 9 kts | 270° |
| 2026-04-26 13:12 | 53.33602 | -2.85817 | 88 ft | 9 kts | 262° |
| 2026-04-26 13:13 | 53.33598 | -2.85879 | 89 ft | 11 kts | 264° |
| 2026-04-26 13:13 | 53.33514 | -2.85937 | 88 ft | 15 kts | 199° |
| 2026-04-26 13:13 | 53.33477 | -2.86111 | 87 ft | 18 kts | 266° |
| 2026-04-26 13:13 | 53.33464 | -2.86323 | 87 ft | 18 kts | 264° |
| 2026-04-26 13:14 | 53.33459 | -2.86549 | 83 ft | 22 kts | 263° |
| 2026-04-26 13:14 | 53.33400 | -2.86727 | 81 ft | 11 kts | 207° |
| 2026-04-26 13:14 | 53.33331 | -2.86700 | 79 ft | 10 kts | 147° |
| 2026-04-26 13:14 | 53.33290 | -2.86610 | 80 ft | 10 kts | 98° |
| 2026-04-26 13:15 | 53.33300 | -2.86372 | 75 ft | 51 kts | 86° |
| 2026-04-26 13:15 | 53.33351 | -2.85300 | 83 ft | 132 kts | 86° |
| 2026-04-26 13:15 | 53.33429 | -2.83435 | 353 ft | 174 kts | 94° |
| 2026-04-26 13:15 | 53.33436 | -2.81281 | 1049 ft | 199 kts | 93° |
| 2026-04-26 13:16 | 53.33424 | -2.79026 | 2384 ft | 192 kts | 96° |
| 2026-04-26 13:16 | 53.32912 | -2.76852 | 2996 ft | 219 kts | 134° |
| 2026-04-26 13:16 | 53.31703 | -2.75048 | 3350 ft | 244 kts | 148° |
| 2026-04-26 13:16 | 53.30220 | -2.73510 | 3792 ft | 255 kts | 151° |
| 2026-04-26 13:17 | 53.27143 | -2.70328 | 5289 ft | 264 kts | 150° |
| 2026-04-26 13:17 | 53.25570 | -2.68713 | 6013 ft | 266 kts | 151° |
| 2026-04-26 13:18 | 53.22352 | -2.65421 | 7149 ft | 285 kts | 150° |
| 2026-04-26 13:18 | 53.20609 | -2.63646 | 7659 ft | 303 kts | 150° |
| 2026-04-26 13:18 | 53.16579 | -2.60635 | 8726 ft | 336 kts | 163° |
| 2026-04-26 13:19 | 53.14317 | -2.59349 | 9326 ft | 351 kts | 163° |
| 2026-04-26 13:19 | 53.11965 | -2.57996 | 9952 ft | 363 kts | 162° |
| 2026-04-26 13:19 | 53.09548 | -2.56598 | 10557 ft | 372 kts | 162° |
| 2026-04-26 13:19 | 53.07078 | -2.55166 | 11113 ft | 378 kts | 163° |
| 2026-04-26 13:20 | 53.04574 | -2.53716 | 11700 ft | 381 kts | 163° |
| 2026-04-26 13:20 | 53.02049 | -2.52257 | 12301 ft | 387 kts | 162° |
| 2026-04-26 13:20 | 52.99494 | -2.50781 | 12928 ft | 392 kts | 163° |
| 2026-04-26 13:20 | 52.96905 | -2.49287 | 13543 ft | 395 kts | 162° |
| 2026-04-26 13:21 | 52.94330 | -2.47804 | 14182 ft | 400 kts | 162° |
| 2026-04-26 13:21 | 52.92547 | -2.46777 | 14562 ft | 402 kts | 162° |
| 2026-04-26 13:21 | 52.89027 | -2.44754 | 15324 ft | 406 kts | 162° |
| 2026-04-26 13:21 | 52.86346 | -2.43216 | 15920 ft | 409 kts | 162° |
| 2026-04-26 13:22 | 52.83647 | -2.41669 | 16518 ft | 412 kts | 162° |
| 2026-04-26 13:22 | 52.80925 | -2.40112 | 17128 ft | 415 kts | 162° |
| 2026-04-26 13:22 | 52.78188 | -2.38548 | 17751 ft | 418 kts | 162° |
| 2026-04-26 13:22 | 52.75432 | -2.36974 | 18381 ft | 420 kts | 162° |
| 2026-04-26 13:23 | 52.72663 | -2.35397 | 18982 ft | 422 kts | 162° |
| 2026-04-26 13:23 | 52.69887 | -2.33818 | 19544 ft | 423 kts | 162° |
| 2026-04-26 13:23 | 52.67103 | -2.32213 | 20121 ft | 425 kts | 160° |
| 2026-04-26 13:23 | 52.64527 | -2.29811 | 20687 ft | 428 kts | 146° |
| 2026-04-26 13:24 | 52.62063 | -2.27054 | 21292 ft | 428 kts | 148° |
| 2026-04-26 13:24 | 52.59579 | -2.24334 | 21911 ft | 428 kts | 148° |
| 2026-04-26 13:24 | 52.57124 | -2.21649 | 22527 ft | 428 kts | 148° |
| 2026-04-26 13:24 | 52.54647 | -2.18944 | 23172 ft | 428 kts | 149° |
| 2026-04-26 13:25 | 52.52165 | -2.16238 | 23821 ft | 427 kts | 149° |
| 2026-04-26 13:25 | 52.49690 | -2.13541 | 24380 ft | 426 kts | 149° |
| 2026-04-26 13:25 | 52.47225 | -2.10860 | 24939 ft | 425 kts | 149° |
| 2026-04-26 13:25 | 52.44764 | -2.08188 | 25507 ft | 423 kts | 149° |
| 2026-04-26 13:26 | 52.42317 | -2.05533 | 26098 ft | 420 kts | 149° |
| 2026-04-26 13:26 | 52.39886 | -2.02898 | 26701 ft | 417 kts | 149° |
| 2026-04-26 13:26 | 52.37469 | -2.00283 | 27304 ft | 414 kts | 149° |
| 2026-04-26 13:26 | 52.35075 | -1.97697 | 27934 ft | 410 kts | 150° |
| 2026-04-26 13:27 | 52.32706 | -1.95142 | 28573 ft | 406 kts | 150° |
| 2026-04-26 13:27 | 52.30382 | -1.92639 | 29065 ft | 405 kts | 150° |
| 2026-04-26 13:27 | 52.28027 | -1.90105 | 29490 ft | 405 kts | 150° |
| 2026-04-26 13:27 | 52.25673 | -1.87575 | 29902 ft | 405 kts | 150° |
| 2026-04-26 13:28 | 52.23324 | -1.85055 | 30337 ft | 405 kts | 150° |
| 2026-04-26 13:28 | 52.20966 | -1.82527 | 30673 ft | 405 kts | 150° |
| 2026-04-26 13:28 | 52.18608 | -1.80003 | 30991 ft | 406 kts | 150° |
| 2026-04-26 13:28 | 52.16239 | -1.77471 | 31307 ft | 406 kts | 150° |
| 2026-04-26 13:29 | 52.13872 | -1.74943 | 31633 ft | 406 kts | 150° |
| 2026-04-26 13:29 | 52.12307 | -1.73274 | 31852 ft | 406 kts | 150° |
| 2026-04-26 13:29 | 52.09146 | -1.69905 | 32292 ft | 406 kts | 150° |
| 2026-04-26 13:29 | 52.06788 | -1.67394 | 32626 ft | 405 kts | 150° |
| 2026-04-26 13:30 | 52.04435 | -1.64886 | 32884 ft | 406 kts | 150° |
| 2026-04-26 13:30 | 52.02053 | -1.62355 | 32998 ft | 410 kts | 150° |
| 2026-04-26 13:30 | 51.99651 | -1.59812 | 33116 ft | 415 kts | 150° |
| 2026-04-26 13:30 | 51.97210 | -1.57232 | 33227 ft | 420 kts | 150° |
| 2026-04-26 13:31 | 51.94742 | -1.54627 | 33357 ft | 425 kts | 150° |
| 2026-04-26 13:31 | 51.92286 | -1.52038 | 33466 ft | 430 kts | 150° |
| 2026-04-26 13:31 | 51.89762 | -1.49382 | 33582 ft | 435 kts | 150° |
| 2026-04-26 13:31 | 51.87204 | -1.46692 | 33709 ft | 440 kts | 150° |
| 2026-04-26 13:32 | 51.84627 | -1.43984 | 33885 ft | 443 kts | 150° |
| 2026-04-26 13:32 | 51.82050 | -1.41280 | 34235 ft | 442 kts | 151° |
| 2026-04-26 13:32 | 51.79476 | -1.38581 | 34566 ft | 439 kts | 150° |
| 2026-04-26 13:32 | 51.76868 | -1.36055 | 34887 ft | 433 kts | 160° |
| 2026-04-26 13:33 | 51.74041 | -1.34558 | 35205 ft | 424 kts | 169° |
| 2026-04-26 13:33 | 51.71223 | -1.33151 | 35552 ft | 422 kts | 166° |
| 2026-04-26 13:33 | 51.68434 | -1.31716 | 35899 ft | 419 kts | 166° |
| 2026-04-26 13:33 | 51.65665 | -1.30306 | 36230 ft | 415 kts | 166° |
| 2026-04-26 13:34 | 51.62910 | -1.28909 | 36427 ft | 416 kts | 166° |
| 2026-04-26 13:34 | 51.57347 | -1.26097 | 36357 ft | 428 kts | 166° |
| 2026-04-26 13:35 | 51.51634 | -1.23216 | 36594 ft | 432 kts | 166° |
| 2026-04-26 13:35 | 51.48777 | -1.21690 | 36721 ft | 436 kts | 160° |
| 2026-04-26 13:35 | 51.46007 | -1.19641 | 36853 ft | 438 kts | 159° |
| 2026-04-26 13:35 | 51.43233 | -1.17599 | 36991 ft | 439 kts | 159° |
| 2026-04-26 13:36 | 51.40442 | -1.15550 | 37126 ft | 441 kts | 159° |
| 2026-04-26 13:36 | 51.37649 | -1.13497 | 37271 ft | 442 kts | 159° |
| 2026-04-26 13:36 | 51.34850 | -1.11441 | 37358 ft | 445 kts | 159° |
| 2026-04-26 13:37 | 51.29176 | -1.07284 | 37411 ft | 452 kts | 159° |
| 2026-04-26 13:37 | 51.23407 | -1.03071 | 37477 ft | 460 kts | 159° |
| 2026-04-26 13:38 | 51.17604 | -0.98841 | 37843 ft | 460 kts | 159° |
| 2026-04-26 13:38 | 51.14708 | -0.96735 | 38127 ft | 457 kts | 159° |
| 2026-04-26 13:38 | 51.11818 | -0.94638 | 38412 ft | 455 kts | 159° |
| 2026-04-26 13:38 | 51.08949 | -0.92557 | 38681 ft | 452 kts | 159° |
| 2026-04-26 13:39 | 51.06088 | -0.90485 | 38953 ft | 449 kts | 159° |
| 2026-04-26 13:39 | 51.03248 | -0.88432 | 39188 ft | 446 kts | 159° |
| 2026-04-26 13:39 | 51.00427 | -0.86395 | 39319 ft | 445 kts | 159° |
| 2026-04-26 13:40 | 50.94760 | -0.82312 | 39296 ft | 449 kts | 159° |
| 2026-04-26 13:40 | 50.89046 | -0.78204 | 39302 ft | 453 kts | 159° |
| 2026-04-26 13:41 | 50.83418 | -0.73599 | 39306 ft | 459 kts | 149° |
| 2026-04-26 13:41 | 50.78042 | -0.68044 | 39296 ft | 462 kts | 150° |
| 2026-04-26 13:42 | 50.72637 | -0.62546 | 39298 ft | 462 kts | 150° |
| 2026-04-26 13:42 | 50.67221 | -0.57058 | 39296 ft | 462 kts | 150° |
| 2026-04-26 13:43 | 50.61843 | -0.51624 | 39291 ft | 462 kts | 150° |
| 2026-04-26 13:43 | 50.56430 | -0.46172 | 39298 ft | 461 kts | 150° |
| 2026-04-26 13:44 | 50.51023 | -0.40739 | 39294 ft | 461 kts | 150° |
| 2026-04-26 13:44 | 50.45612 | -0.35317 | 39296 ft | 461 kts | 150° |
| 2026-04-26 13:45 | 50.40193 | -0.29903 | 39287 ft | 461 kts | 150° |
| 2026-04-26 13:45 | 50.34788 | -0.24517 | 39290 ft | 460 kts | 150° |
| 2026-04-26 13:46 | 50.29410 | -0.19173 | 39287 ft | 461 kts | 150° |
| 2026-04-26 13:46 | 50.23993 | -0.13805 | 39287 ft | 461 kts | 151° |
| 2026-04-26 13:47 | 50.18579 | -0.08454 | 39271 ft | 460 kts | 150° |
| 2026-04-26 13:47 | 50.13173 | -0.03124 | 39278 ft | 460 kts | 150° |
| 2026-04-26 13:48 | 50.07444 | 0.00912 | 39274 ft | 448 kts | 172° |
| 2026-04-26 13:48 | 50.01370 | 0.03322 | 39291 ft | 452 kts | 168° |
| 2026-04-26 13:49 | 49.96285 | 0.05388 | 39263 ft | 455 kts | 169° |
| 2026-04-26 13:49 | 49.90138 | 0.07818 | 39274 ft | 456 kts | 169° |
| 2026-04-26 13:50 | 49.83987 | 0.10227 | 39262 ft | 456 kts | 169° |
| 2026-04-26 13:50 | 49.77839 | 0.12629 | 39264 ft | 456 kts | 169° |
| 2026-04-26 13:51 | 49.71671 | 0.15032 | 39258 ft | 456 kts | 169° |
| 2026-04-26 13:51 | 49.65516 | 0.17466 | 39265 ft | 457 kts | 169° |
| 2026-04-26 13:52 | 49.59410 | 0.19930 | 39264 ft | 456 kts | 169° |
| 2026-04-26 13:52 | 49.53267 | 0.22399 | 39268 ft | 456 kts | 169° |
| 2026-04-26 13:53 | 49.47118 | 0.24865 | 39264 ft | 457 kts | 169° |
| 2026-04-26 13:53 | 49.40963 | 0.27327 | 39269 ft | 457 kts | 169° |
| 2026-04-26 13:54 | 49.34810 | 0.29782 | 39260 ft | 457 kts | 169° |
| 2026-04-26 13:54 | 49.28668 | 0.32288 | 39258 ft | 457 kts | 168° |
| 2026-04-26 13:55 | 49.20500 | 0.35731 | 39238 ft | 457 kts | 168° |
| 2026-04-26 13:56 | 49.10310 | 0.40012 | 39237 ft | 457 kts | 168° |
| 2026-04-26 13:56 | 49.04168 | 0.42582 | 39226 ft | 457 kts | 168° |
| 2026-04-26 13:57 | 48.98022 | 0.45148 | 39229 ft | 458 kts | 168° |
| 2026-04-26 13:57 | 48.91860 | 0.47714 | 39236 ft | 460 kts | 168° |
| 2026-04-26 13:58 | 48.85691 | 0.50277 | 39223 ft | 459 kts | 168° |
| 2026-04-26 13:58 | 48.79518 | 0.52829 | 39226 ft | 459 kts | 168° |
| 2026-04-26 13:59 | 48.73335 | 0.55272 | 39220 ft | 459 kts | 168° |
| 2026-04-26 13:59 | 48.67148 | 0.57698 | 39221 ft | 459 kts | 168° |
| 2026-04-26 14:00 | 48.54791 | 0.62523 | 39219 ft | 461 kts | 169° |
| 2026-04-26 14:01 | 48.48581 | 0.65007 | 39219 ft | 461 kts | 168° |
| 2026-04-26 14:01 | 48.42386 | 0.67531 | 39206 ft | 461 kts | 167° |
| 2026-04-26 14:02 | 48.36177 | 0.70050 | 39212 ft | 462 kts | 167° |
| 2026-04-26 14:02 | 48.29973 | 0.72560 | 39203 ft | 462 kts | 167° |
| 2026-04-26 14:03 | 48.23766 | 0.75050 | 39207 ft | 462 kts | 168° |
| 2026-04-26 14:03 | 48.17552 | 0.77500 | 39203 ft | 461 kts | 168° |
| 2026-04-26 14:04 | 48.11377 | 0.79927 | 39202 ft | 461 kts | 168° |
| 2026-04-26 14:04 | 48.05166 | 0.82362 | 39194 ft | 461 kts | 168° |
| 2026-04-26 14:05 | 47.98966 | 0.84787 | 39189 ft | 461 kts | 168° |
| 2026-04-26 14:05 | 47.92755 | 0.87209 | 39200 ft | 462 kts | 167° |
| 2026-04-26 14:06 | 47.86530 | 0.89632 | 39195 ft | 462 kts | 167° |
| 2026-04-26 14:06 | 47.80311 | 0.92046 | 39200 ft | 462 kts | 167° |
| 2026-04-26 14:07 | 47.74086 | 0.94456 | 39195 ft | 463 kts | 167° |
| 2026-04-26 14:07 | 47.67853 | 0.96863 | 39196 ft | 463 kts | 167° |
| 2026-04-26 14:08 | 47.61615 | 0.99266 | 39194 ft | 463 kts | 167° |
| 2026-04-26 14:08 | 47.55385 | 1.01661 | 39192 ft | 463 kts | 167° |
| 2026-04-26 14:09 | 47.49144 | 1.04053 | 39193 ft | 463 kts | 167° |
| 2026-04-26 14:09 | 47.42889 | 1.06304 | 39181 ft | 461 kts | 176° |
| 2026-04-26 14:10 | 47.36579 | 1.06262 | 39161 ft | 458 kts | 182° |
| 2026-04-26 14:10 | 47.30188 | 1.06143 | 39204 ft | 460 kts | 183° |
| 2026-04-26 14:11 | 47.20584 | 1.05920 | 39189 ft | 459 kts | 183° |
| 2026-04-26 14:11 | 47.14181 | 1.05770 | 39181 ft | 460 kts | 183° |
| 2026-04-26 14:12 | 47.07781 | 1.05621 | 39190 ft | 460 kts | 183° |
| 2026-04-26 14:12 | 47.01380 | 1.05443 | 39189 ft | 460 kts | 184° |
| 2026-04-26 14:13 | 46.98178 | 1.05309 | 39188 ft | 460 kts | 184° |
| 2026-04-26 14:14 | 46.94809 | 1.05166 | 39187 ft | 460 kts | 184° |
| 2026-04-26 14:14 | 46.88407 | 1.04892 | 39187 ft | 460 kts | 184° |
| 2026-04-26 14:15 | 46.81999 | 1.04619 | 39188 ft | 460 kts | 184° |
| 2026-04-26 14:15 | 46.75583 | 1.04347 | 39191 ft | 460 kts | 184° |
| 2026-04-26 14:16 | 46.69230 | 1.04077 | 39186 ft | 460 kts | 184° |
| 2026-04-26 14:16 | 46.62823 | 1.03806 | 39186 ft | 460 kts | 184° |
| 2026-04-26 14:17 | 46.56417 | 1.03536 | 39178 ft | 460 kts | 184° |
| 2026-04-26 14:17 | 46.50021 | 1.03818 | 39158 ft | 461 kts | 167° |
| 2026-04-26 14:18 | 46.43772 | 1.05981 | 39163 ft | 463 kts | 168° |
| 2026-04-26 14:18 | 46.37487 | 1.08062 | 39182 ft | 464 kts | 168° |
| 2026-04-26 14:19 | 46.36468 | 1.08401 | 39179 ft | 464 kts | 168° |
| 2026-04-26 14:20 | 46.12993 | 1.16198 | 39175 ft | 463 kts | 168° |
| 2026-04-26 14:21 | 46.06719 | 1.18271 | 39178 ft | 462 kts | 168° |
| 2026-04-26 14:21 | 46.00438 | 1.20341 | 39182 ft | 463 kts | 168° |
| 2026-04-26 14:22 | 45.94148 | 1.22409 | 39178 ft | 464 kts | 168° |
| 2026-04-26 14:22 | 45.87856 | 1.24473 | 39183 ft | 464 kts | 168° |
| 2026-04-26 14:23 | 45.81561 | 1.26533 | 39184 ft | 464 kts | 168° |
| 2026-04-26 14:23 | 45.75267 | 1.28588 | 39177 ft | 463 kts | 168° |
| 2026-04-26 14:24 | 45.68986 | 1.30634 | 39162 ft | 463 kts | 168° |
| 2026-04-26 14:24 | 45.62690 | 1.32681 | 39162 ft | 463 kts | 168° |
| 2026-04-26 14:25 | 45.56451 | 1.34704 | 39155 ft | 463 kts | 168° |
| 2026-04-26 14:25 | 45.50155 | 1.36741 | 39158 ft | 463 kts | 168° |
| 2026-04-26 14:26 | 45.43864 | 1.38771 | 39162 ft | 463 kts | 168° |
| 2026-04-26 14:26 | 45.37578 | 1.40796 | 39155 ft | 463 kts | 168° |
| 2026-04-26 14:27 | 45.31340 | 1.42800 | 39169 ft | 463 kts | 168° |
| 2026-04-26 14:27 | 45.25056 | 1.44814 | 39157 ft | 463 kts | 168° |
| 2026-04-26 14:28 | 45.18775 | 1.46824 | 39167 ft | 463 kts | 168° |
| 2026-04-26 14:28 | 45.12485 | 1.48831 | 39157 ft | 462 kts | 168° |
| 2026-04-26 14:29 | 45.06204 | 1.50831 | 39156 ft | 462 kts | 168° |
| 2026-04-26 14:29 | 44.99927 | 1.52825 | 39177 ft | 462 kts | 168° |
| 2026-04-26 14:30 | 44.93645 | 1.54816 | 39159 ft | 462 kts | 168° |
| 2026-04-26 14:30 | 44.87358 | 1.56805 | 39160 ft | 463 kts | 168° |
| 2026-04-26 14:31 | 44.81080 | 1.58786 | 39157 ft | 463 kts | 168° |
| 2026-04-26 14:31 | 44.74837 | 1.60752 | 39168 ft | 463 kts | 168° |
| 2026-04-26 14:32 | 44.68546 | 1.62728 | 39158 ft | 462 kts | 168° |
| 2026-04-26 14:32 | 44.62268 | 1.64696 | 39157 ft | 462 kts | 168° |
| 2026-04-26 14:33 | 44.55996 | 1.66658 | 39163 ft | 461 kts | 168° |
| 2026-04-26 14:33 | 44.49720 | 1.68616 | 39166 ft | 461 kts | 168° |
| 2026-04-26 14:34 | 44.43451 | 1.70569 | 39160 ft | 461 kts | 168° |
| 2026-04-26 14:34 | 44.37224 | 1.72504 | 39152 ft | 460 kts | 168° |
| 2026-04-26 14:35 | 44.30951 | 1.74449 | 39148 ft | 458 kts | 168° |
| 2026-04-26 14:35 | 44.24707 | 1.75948 | 39157 ft | 459 kts | 172° |
| 2026-04-26 14:36 | 44.18404 | 1.77348 | 39157 ft | 457 kts | 172° |
| 2026-04-26 14:36 | 44.12116 | 1.78739 | 39147 ft | 457 kts | 172° |
| 2026-04-26 14:37 | 44.05838 | 1.80123 | 39149 ft | 457 kts | 172° |
| 2026-04-26 14:37 | 43.99553 | 1.81505 | 39146 ft | 456 kts | 172° |
| 2026-04-26 14:38 | 43.93264 | 1.82605 | 39159 ft | 454 kts | 177° |
| 2026-04-26 14:38 | 43.86986 | 1.83229 | 39147 ft | 455 kts | 177° |
| 2026-04-26 14:39 | 43.80663 | 1.83845 | 39145 ft | 455 kts | 177° |
| 2026-04-26 14:39 | 43.74338 | 1.84459 | 39152 ft | 455 kts | 177° |
| 2026-04-26 14:40 | 43.68018 | 1.85072 | 39141 ft | 456 kts | 177° |
| 2026-04-26 14:40 | 43.61679 | 1.85685 | 39141 ft | 455 kts | 177° |
| 2026-04-26 14:41 | 43.55359 | 1.86294 | 39136 ft | 455 kts | 177° |
| 2026-04-26 14:41 | 43.49074 | 1.86899 | 39132 ft | 455 kts | 177° |
| 2026-04-26 14:42 | 43.42746 | 1.87507 | 39133 ft | 455 kts | 177° |
| 2026-04-26 14:42 | 43.36437 | 1.88112 | 39123 ft | 453 kts | 177° |
| 2026-04-26 14:43 | 43.30137 | 1.88715 | 39124 ft | 453 kts | 177° |
| 2026-04-26 14:43 | 43.23835 | 1.89318 | 39122 ft | 453 kts | 177° |
| 2026-04-26 14:44 | 43.17542 | 1.89919 | 39119 ft | 453 kts | 177° |
| 2026-04-26 14:44 | 43.11266 | 1.90517 | 39123 ft | 452 kts | 177° |
| 2026-04-26 14:45 | 43.05029 | 1.91110 | 39133 ft | 452 kts | 178° |
| 2026-04-26 14:45 | 42.98737 | 1.91706 | 39131 ft | 452 kts | 178° |
| 2026-04-26 14:46 | 42.92458 | 1.92301 | 39136 ft | 453 kts | 178° |
| 2026-04-26 14:46 | 42.86178 | 1.92894 | 39137 ft | 452 kts | 178° |
| 2026-04-26 14:47 | 42.79899 | 1.93486 | 39140 ft | 452 kts | 178° |
| 2026-04-26 14:47 | 42.73607 | 1.94078 | 39148 ft | 452 kts | 178° |
| 2026-04-26 14:48 | 42.67400 | 1.95351 | 39137 ft | 453 kts | 158° |
| 2026-04-26 14:48 | 42.64665 | 1.97446 | 39151 ft | 455 kts | 141° |
| 2026-04-26 14:48 | 42.62331 | 2.00287 | 39150 ft | 457 kts | 140° |
| 2026-04-26 14:49 | 42.57437 | 2.05824 | 39163 ft | 460 kts | 141° |
| 2026-04-26 14:49 | 42.52504 | 2.11367 | 39157 ft | 459 kts | 141° |
| 2026-04-26 14:50 | 42.47573 | 2.16897 | 39145 ft | 460 kts | 141° |
| 2026-04-26 14:50 | 42.42640 | 2.22417 | 39149 ft | 460 kts | 141° |
| 2026-04-26 14:51 | 42.37710 | 2.27922 | 39141 ft | 459 kts | 141° |
| 2026-04-26 14:51 | 42.32780 | 2.33415 | 39139 ft | 460 kts | 141° |
| 2026-04-26 14:52 | 42.27839 | 2.38909 | 39139 ft | 460 kts | 141° |
| 2026-04-26 14:52 | 42.22894 | 2.44395 | 39124 ft | 460 kts | 141° |
| 2026-04-26 14:53 | 42.17982 | 2.49835 | 39120 ft | 460 kts | 142° |
| 2026-04-26 14:53 | 42.13040 | 2.55296 | 39114 ft | 458 kts | 142° |
| 2026-04-26 14:54 | 42.08108 | 2.60733 | 39107 ft | 458 kts | 142° |
| 2026-04-26 14:54 | 42.03181 | 2.66156 | 39104 ft | 458 kts | 142° |
| 2026-04-26 14:54 | 42.00706 | 2.68875 | 38916 ft | 459 kts | 142° |
| 2026-04-26 14:55 | 41.98242 | 2.71579 | 38425 ft | 456 kts | 142° |
| 2026-04-26 14:55 | 41.95784 | 2.74275 | 38097 ft | 456 kts | 142° |
| 2026-04-26 14:55 | 41.93343 | 2.76923 | 38075 ft | 455 kts | 145° |
| 2026-04-26 14:56 | 41.88187 | 2.81909 | 38101 ft | 457 kts | 146° |
| 2026-04-26 14:56 | 41.83008 | 2.86865 | 38112 ft | 457 kts | 146° |
| 2026-04-26 14:57 | 41.77819 | 2.91817 | 38134 ft | 457 kts | 146° |
| 2026-04-26 14:57 | 41.72630 | 2.96760 | 38043 ft | 458 kts | 146° |
| 2026-04-26 14:57 | 41.70046 | 2.99219 | 37639 ft | 454 kts | 146° |
| 2026-04-26 14:58 | 41.67508 | 3.01630 | 37138 ft | 453 kts | 146° |
| 2026-04-26 14:58 | 41.64936 | 3.04071 | 36604 ft | 453 kts | 146° |
| 2026-04-26 14:58 | 41.62364 | 3.06509 | 36092 ft | 454 kts | 146° |
| 2026-04-26 14:58 | 41.59786 | 3.08952 | 35584 ft | 454 kts | 146° |
| 2026-04-26 14:59 | 41.57201 | 3.11398 | 35086 ft | 455 kts | 146° |
| 2026-04-26 14:59 | 41.54611 | 3.13847 | 34600 ft | 456 kts | 146° |
| 2026-04-26 14:59 | 41.52021 | 3.16294 | 34123 ft | 457 kts | 146° |
| 2026-04-26 14:59 | 41.50265 | 3.17950 | 33740 ft | 456 kts | 147° |
| 2026-04-26 15:00 | 41.46720 | 3.20956 | 33032 ft | 457 kts | 149° |
| 2026-04-26 15:00 | 41.44014 | 3.23190 | 32509 ft | 458 kts | 149° |
| 2026-04-26 15:00 | 41.41291 | 3.25432 | 31988 ft | 460 kts | 149° |
| 2026-04-26 15:00 | 41.38560 | 3.27676 | 31481 ft | 461 kts | 149° |
| 2026-04-26 15:01 | 41.35823 | 3.29924 | 30981 ft | 463 kts | 149° |
| 2026-04-26 15:01 | 41.33072 | 3.32180 | 30489 ft | 465 kts | 149° |
| 2026-04-26 15:01 | 41.30309 | 3.34444 | 29968 ft | 467 kts | 149° |
| 2026-04-26 15:01 | 41.27541 | 3.36710 | 29400 ft | 468 kts | 149° |
| 2026-04-26 15:02 | 41.24797 | 3.38954 | 28866 ft | 469 kts | 149° |
| 2026-04-26 15:02 | 41.22015 | 3.41226 | 28309 ft | 470 kts | 149° |
| 2026-04-26 15:02 | 41.19224 | 3.43504 | 27776 ft | 471 kts | 149° |
| 2026-04-26 15:02 | 41.16427 | 3.45780 | 27248 ft | 473 kts | 149° |
| 2026-04-26 15:03 | 41.13582 | 3.48093 | 26727 ft | 474 kts | 149° |
| 2026-04-26 15:03 | 41.10802 | 3.50351 | 26215 ft | 475 kts | 149° |
| 2026-04-26 15:03 | 41.07983 | 3.52637 | 25737 ft | 476 kts | 149° |
| 2026-04-26 15:03 | 41.05150 | 3.54934 | 25240 ft | 474 kts | 148° |
| 2026-04-26 15:04 | 41.02351 | 3.57201 | 24762 ft | 470 kts | 148° |
| 2026-04-26 15:04 | 40.99569 | 3.59452 | 24296 ft | 467 kts | 148° |
| 2026-04-26 15:04 | 40.96801 | 3.61689 | 23834 ft | 464 kts | 148° |
| 2026-04-26 15:04 | 40.94053 | 3.63908 | 23314 ft | 461 kts | 148° |
| 2026-04-26 15:05 | 40.92248 | 3.65365 | 22955 ft | 459 kts | 148° |
| 2026-04-26 15:05 | 40.90407 | 3.66849 | 22597 ft | 456 kts | 148° |
| 2026-04-26 15:05 | 40.86863 | 3.69703 | 21908 ft | 443 kts | 149° |
| 2026-04-26 15:05 | 40.84255 | 3.71803 | 21401 ft | 437 kts | 148° |
| 2026-04-26 15:06 | 40.80832 | 3.74554 | 20739 ft | 431 kts | 148° |
| 2026-04-26 15:06 | 40.79103 | 3.75942 | 20417 ft | 428 kts | 148° |
| 2026-04-26 15:06 | 40.76569 | 3.77975 | 19924 ft | 425 kts | 149° |
| 2026-04-26 15:06 | 40.74051 | 3.79994 | 19456 ft | 422 kts | 149° |
| 2026-04-26 15:07 | 40.69089 | 3.83968 | 18532 ft | 417 kts | 148° |
| 2026-04-26 15:07 | 40.66612 | 3.85948 | 18021 ft | 414 kts | 148° |
| 2026-04-26 15:07 | 40.64158 | 3.87910 | 17501 ft | 412 kts | 148° |
| 2026-04-26 15:08 | 40.61712 | 3.89861 | 16986 ft | 409 kts | 148° |
| 2026-04-26 15:08 | 40.59286 | 3.91796 | 16471 ft | 407 kts | 148° |
| 2026-04-26 15:08 | 40.56873 | 3.93719 | 16199 ft | 405 kts | 148° |
| 2026-04-26 15:08 | 40.54461 | 3.95641 | 16147 ft | 406 kts | 148° |
| 2026-04-26 15:09 | 40.52043 | 3.97564 | 16154 ft | 406 kts | 148° |
| 2026-04-26 15:09 | 40.49561 | 3.99337 | 15758 ft | 406 kts | 159° |
| 2026-04-26 15:09 | 40.46860 | 4.00319 | 15380 ft | 402 kts | 165° |
| 2026-04-26 15:09 | 40.44163 | 4.01266 | 14824 ft | 401 kts | 164° |
| 2026-04-26 15:10 | 40.41465 | 4.02223 | 14228 ft | 401 kts | 164° |
| 2026-04-26 15:10 | 40.39682 | 4.02856 | 13817 ft | 401 kts | 163° |
| 2026-04-26 15:10 | 40.36125 | 4.04117 | 12957 ft | 400 kts | 163° |
| 2026-04-26 15:10 | 40.33443 | 4.05067 | 12317 ft | 399 kts | 164° |
| 2026-04-26 15:11 | 40.30765 | 4.06016 | 11625 ft | 395 kts | 164° |
| 2026-04-26 15:11 | 40.28153 | 4.06940 | 10945 ft | 382 kts | 164° |
| 2026-04-26 15:11 | 40.25625 | 4.07834 | 10288 ft | 372 kts | 164° |
| 2026-04-26 15:11 | 40.23156 | 4.08707 | 9590 ft | 362 kts | 164° |
| 2026-04-26 15:12 | 40.20755 | 4.09555 | 8877 ft | 354 kts | 164° |
| 2026-04-26 15:12 | 40.18399 | 4.10386 | 8165 ft | 347 kts | 163° |
| 2026-04-26 15:12 | 40.16092 | 4.11200 | 7564 ft | 339 kts | 163° |
| 2026-04-26 15:12 | 40.13865 | 4.12040 | 7025 ft | 327 kts | 156° |
| 2026-04-26 15:13 | 40.12021 | 4.13622 | 6593 ft | 310 kts | 132° |
| 2026-04-26 15:13 | 40.10811 | 4.15865 | 6207 ft | 295 kts | 120° |
| 2026-04-26 15:13 | 40.09527 | 4.17889 | 5826 ft | 285 kts | 133° |
| 2026-04-26 15:13 | 40.08391 | 4.19882 | 5487 ft | 272 kts | 114° |
| 2026-04-26 15:14 | 40.07938 | 4.22227 | 5225 ft | 257 kts | 94° |
| 2026-04-26 15:14 | 40.07757 | 4.24490 | 4949 ft | 246 kts | 105° |
| 2026-04-26 15:14 | 40.06979 | 4.26344 | 4792 ft | 230 kts | 132° |
| 2026-04-26 15:14 | 40.05639 | 4.27320 | 4559 ft | 220 kts | 171° |
| 2026-04-26 15:15 | 40.04195 | 4.27016 | 4371 ft | 206 kts | 203° |
| 2026-04-26 15:15 | 40.02936 | 4.26332 | 4211 ft | 185 kts | 199° |
| 2026-04-26 15:15 | 40.01770 | 4.25790 | 3846 ft | 173 kts | 197° |
| 2026-04-26 15:15 | 40.00658 | 4.25330 | 3486 ft | 162 kts | 195° |
| 2026-04-26 15:16 | 39.99613 | 4.24911 | 3179 ft | 150 kts | 199° |
| 2026-04-26 15:16 | 39.98668 | 4.24477 | 2833 ft | 143 kts | 199° |
| 2026-04-26 15:16 | 39.97701 | 4.24156 | 2353 ft | 142 kts | 192° |
| 2026-04-26 15:16 | 39.96778 | 4.23880 | 2298 ft | 138 kts | 193° |
| 2026-04-26 15:17 | 39.95804 | 4.23629 | 1861 ft | 141 kts | 191° |
| 2026-04-26 15:17 | 39.95199 | 4.23497 | 2070 ft | 130 kts | 188° |
| 2026-04-26 15:17 | 39.93929 | 4.23237 | 2141 ft | 144 kts | 186° |
| 2026-04-26 15:17 | 39.92932 | 4.23113 | 1825 ft | 143 kts | 184° |
| 2026-04-26 15:18 | 39.91945 | 4.22984 | 1487 ft | 141 kts | 185° |
| 2026-04-26 15:18 | 39.90973 | 4.22824 | 1098 ft | 140 kts | 188° |
| 2026-04-26 15:18 | 39.90020 | 4.22595 | 919 ft | 141 kts | 189° |
| 2026-04-26 15:18 | 39.89055 | 4.22375 | 736 ft | 141 kts | 187° |
| 2026-04-26 15:19 | 39.88079 | 4.22196 | 517 ft | 141 kts | 184° |
| 2026-04-26 15:19 | 39.87100 | 4.22028 | 326 ft | 142 kts | 186° |
| 2026-04-26 15:19 | 39.86223 | 4.21857 | 305 ft | 109 kts | 188° |
| 2026-04-26 15:19 | 39.85659 | 4.21740 | 296 ft | 60 kts | 188° |
| 2026-04-26 15:20 | 39.85291 | 4.21665 | 288 ft | 47 kts | 188° |
| 2026-04-26 15:20 | 39.85138 | 4.21713 | 287 ft | 16 kts | 100° |
| 2026-04-26 15:20 | 39.85146 | 4.21866 | 284 ft | 19 kts | 46° |
| 2026-04-26 15:20 | 39.85271 | 4.21899 | 286 ft | 19 kts | 9° |
| 2026-04-26 15:21 | 39.85402 | 4.21931 | 285 ft | 19 kts | 7° |
| 2026-04-26 15:21 | 39.85534 | 4.21955 | 288 ft | 19 kts | 8° |
| 2026-04-26 15:21 | 39.85659 | 4.21980 | 296 ft | 18 kts | 10° |
| 2026-04-26 15:21 | 39.85780 | 4.22007 | 299 ft | 17 kts | 7° |
| 2026-04-26 15:22 | 39.85893 | 4.22026 | 298 ft | 16 kts | 1° |
| 2026-04-26 15:22 | 39.86007 | 4.22049 | 298 ft | 18 kts | 8° |
| 2026-04-26 15:22 | 39.86141 | 4.22082 | 298 ft | 20 kts | 9° |
| 2026-04-26 15:22 | 39.86185 | 4.22238 | 291 ft | 18 kts | 76° |
| 2026-04-26 15:23 | 39.86269 | 4.22279 | 296 ft | 14 kts | 8° |
| 2026-04-26 15:23 | 39.86370 | 4.22300 | 291 ft | 16 kts | 13° |
| 2026-04-26 15:23 | 39.86480 | 4.22323 | 291 ft | 17 kts | 1° |
| 2026-04-26 15:23 | 39.86596 | 4.22348 | 292 ft | 11 kts | 13° |
| 2026-04-26 15:24 | 39.86643 | 4.22354 | 292 ft | 7 kts | 7° |
| 2026-04-26 15:24 | 39.86698 | 4.22367 | 293 ft | 9 kts | 18° |
| 2026-04-26 15:24 | 39.86721 | 4.22424 | 292 ft | 4 kts | 105° |
| 2026-04-26 15:24 | 39.86715 | 4.22454 | 291 ft | 3 kts | 101° |
| 2026-04-26 15:25 | 39.86715 | 4.22458 | 295 ft | 0 kts | 101° |